Albany, Iowa
Current Conditions -  °F | °C
As of 2:55 AM on Wednesday 28 Jan 2015 (Local Time) from KOLZ Reporting Station
Haze Haze  
Wind Chill: 15°   Ceiling: 600
Heat Index: 27°   Visibility: 3mi
Dew Point: 25°   Wind: 14mph
Humidity: 93%   Direction: 150°SSE
Pressure: 30.16"   Gusts: NA
Location:  42.8663°N, 91.8396°W
Report Text: KOLZ 280855Z AUTO 15012KT 3SM BR OVC006 M03/M04 A3016 RMK AO2
Loading
Personal Weather Stations






























Interactive Weather Map New forecast layout! Learn more

10-Day Weather Forecast

Advertisements
Track Severe Weather on mobile